createdAt,value
2018-02-07T00:00:08.494Z,55.05
2018-02-07T00:02:37.079Z,55.03
2018-02-07T00:05:05.350Z,54.84
2018-02-07T00:07:33.835Z,55.72
2018-02-07T00:10:02.352Z,55.83
2018-02-07T00:12:30.899Z,55.13
2018-02-07T00:14:59.690Z,54.77
2018-02-07T00:17:27.999Z,54.91
2018-02-07T00:19:56.856Z,54.74
2018-02-07T00:22:25.330Z,54.98
2018-02-07T00:24:53.550Z,54.78
2018-02-07T00:27:22.086Z,55.12
2018-02-07T00:29:50.979Z,55.34
2018-02-07T00:32:19.662Z,55.44
2018-02-07T00:34:48.248Z,55.70
2018-02-07T00:37:16.728Z,55.44
2018-02-07T00:39:45.514Z,55.55
2018-02-07T00:42:14.198Z,54.94
2018-02-07T00:44:42.802Z,55.02
2018-02-07T00:47:11.366Z,54.96
2018-02-07T00:49:39.847Z,55.87
2018-02-07T00:52:08.243Z,57.08
2018-02-07T00:54:36.907Z,57.21
2018-02-07T00:57:05.400Z,57.36
2018-02-07T00:59:33.788Z,56.42
2018-02-07T01:02:02.453Z,55.59
2018-02-07T01:04:31.039Z,55.73
2018-02-07T01:06:59.522Z,56.18
2018-02-07T01:09:27.889Z,56.05
2018-02-07T01:11:56.578Z,56.10
2018-02-07T01:14:24.971Z,56.63
2018-02-07T01:16:53.442Z,56.03
2018-02-07T01:19:22.225Z,55.77
2018-02-07T01:21:50.891Z,56.13
2018-02-07T01:24:19.598Z,56.39
2018-02-07T01:26:48.282Z,56.44
2018-02-07T01:29:16.558Z,56.31
2018-02-07T01:31:45.324Z,56.26
2018-02-07T01:34:13.466Z,56.18
2018-02-07T01:36:42.111Z,56.15
2018-02-07T01:39:10.674Z,55.86
2018-02-07T01:41:39.161Z,57.21
2018-02-07T01:44:07.641Z,57.08
2018-02-07T01:46:36.033Z,56.39
2018-02-07T01:49:04.910Z,55.79
2018-02-07T01:51:33.389Z,56.43
2018-02-07T01:54:01.678Z,57.33
2018-02-07T01:56:30.252Z,59.09
2018-02-07T01:58:58.714Z,62.52
2018-02-07T02:01:27.321Z,64.90
2018-02-07T02:03:55.793Z,65.48
2018-02-07T02:06:23.997Z,65.91
2018-02-07T02:08:52.346Z,65.98
2018-02-07T02:11:20.827Z,65.50
2018-02-07T02:13:49.409Z,64.91
2018-02-07T02:16:17.889Z,63.92
2018-02-07T02:18:46.270Z,64.96
2018-02-07T02:21:14.954Z,64.57
2018-02-07T02:23:43.416Z,62.35
2018-02-07T02:26:11.814Z,63.22
2018-02-07T02:28:40.398Z,62.32
2018-02-07T02:31:08.685Z,59.37
2018-02-07T02:33:36.951Z,59.79
2018-02-07T02:36:17.453Z,58.45
2018-02-07T02:38:45.791Z,58.26
2018-02-07T02:41:14.675Z,58.38
2018-02-07T02:43:42.843Z,58.00
2018-02-07T02:46:11.336Z,57.19
2018-02-07T02:48:39.914Z,59.39
2018-02-07T02:51:08.906Z,58.78
2018-02-07T02:53:37.570Z,57.92
2018-02-07T02:56:06.070Z,57.56
2018-02-07T02:58:34.655Z,58.16
2018-02-07T03:01:03.018Z,56.69
2018-02-07T03:03:31.413Z,56.51
2018-02-07T03:06:00.194Z,56.38
2018-02-07T03:08:28.678Z,57.06
2018-02-07T03:10:56.955Z,57.08
2018-02-07T03:13:25.349Z,56.48
2018-02-07T03:15:53.810Z,56.47
2018-02-07T03:18:21.986Z,59.30
2018-02-07T03:20:50.561Z,61.77
2018-02-07T03:23:19.047Z,59.95
2018-02-07T03:25:47.338Z,58.65
2018-02-07T03:28:15.702Z,57.37
2018-02-07T03:30:44.183Z,57.36
2018-02-07T03:33:12.557Z,57.13
2018-02-07T03:35:41.255Z,57.37
2018-02-07T03:38:09.936Z,57.66
2018-02-07T03:40:38.506Z,58.18
2018-02-07T03:43:07.245Z,58.66
2018-02-07T03:45:35.881Z,58.58
2018-02-07T03:48:04.678Z,58.82
2018-02-07T03:50:32.841Z,58.98
2018-02-07T03:53:01.633Z,59.15
2018-02-07T03:55:30.526Z,61.93
2018-02-07T03:57:58.907Z,62.67
2018-02-07T04:00:27.181Z,61.64
2018-02-07T04:02:55.454Z,61.00
2018-02-07T04:05:24.137Z,59.61
2018-02-07T04:07:52.722Z,59.33
2018-02-07T04:10:21.254Z,59.07
2018-02-07T04:12:49.578Z,59.79
2018-02-07T04:15:18.146Z,60.94
2018-02-07T04:17:46.543Z,61.18
2018-02-07T04:20:15.130Z,60.28
2018-02-07T04:22:43.302Z,59.55
2018-02-07T04:25:11.674Z,59.73
2018-02-07T04:27:40.114Z,59.95
2018-02-07T04:30:08.640Z,60.17
2018-02-07T04:32:37.322Z,61.31
2018-02-07T04:35:05.711Z,61.08
2018-02-07T04:37:34.132Z,60.93
2018-02-07T04:40:02.453Z,61.20
2018-02-07T04:42:30.934Z,60.78
2018-02-07T04:44:59.421Z,60.97
2018-02-07T04:47:28.082Z,60.83
2018-02-07T04:49:56.286Z,60.89
2018-02-07T04:52:24.962Z,60.53
2018-02-07T04:54:53.555Z,60.57
2018-02-07T04:57:21.925Z,60.96
2018-02-07T04:59:50.402Z,62.81
2018-02-07T05:02:18.779Z,60.64
2018-02-07T05:04:47.173Z,61.62
2018-02-07T05:07:15.450Z,63.33
2018-02-07T05:09:43.895Z,61.74
2018-02-07T05:12:12.190Z,62.20
2018-02-07T05:14:40.832Z,63.59
2018-02-07T05:17:09.359Z,65.08
2018-02-07T05:19:37.839Z,64.42
2018-02-07T05:22:06.133Z,63.46
2018-02-07T05:24:34.388Z,61.66
2018-02-07T05:27:03.012Z,62.47
2018-02-07T05:29:31.554Z,64.18
2018-02-07T05:32:00.139Z,64.31
2018-02-07T05:34:28.905Z,64.29
2018-02-07T05:36:57.402Z,63.12
2018-02-07T05:39:26.090Z,61.51
2018-02-07T05:41:54.551Z,60.71
2018-02-07T05:44:23.153Z,62.20
2018-02-07T05:46:51.838Z,64.07
2018-02-07T05:49:20.300Z,64.58
2018-02-07T05:51:48.800Z,63.66
2018-02-07T05:54:17.077Z,64.78
2018-02-07T05:56:45.759Z,64.50
2018-02-07T05:59:14.031Z,66.74
2018-02-07T06:01:42.530Z,64.58
2018-02-07T06:04:10.709Z,63.06
2018-02-07T06:06:38.964Z,61.46
2018-02-07T06:09:07.528Z,60.35
2018-02-07T06:11:35.927Z,60.48
2018-02-07T06:14:04.324Z,60.29
2018-02-07T06:16:33.090Z,59.41
2018-02-07T06:19:01.878Z,59.38
2018-02-07T06:21:30.199Z,59.40
2018-02-07T06:23:59.031Z,59.33
2018-02-07T06:26:27.531Z,59.21
2018-02-07T06:28:56.110Z,58.34
2018-02-07T06:31:24.378Z,56.61
2018-02-07T06:33:52.873Z,59.08
2018-02-07T06:36:21.345Z,59.04
2018-02-07T06:38:49.947Z,58.69
2018-02-07T06:41:18.309Z,59.01
2018-02-07T06:43:46.682Z,59.50
2018-02-07T06:46:14.961Z,60.04
2018-02-07T06:48:43.745Z,58.61
2018-02-07T06:51:12.311Z,59.55
2018-02-07T06:53:40.917Z,59.18
2018-02-07T06:56:09.390Z,60.30
2018-02-07T06:58:38.386Z,61.30
2018-02-07T07:01:06.570Z,60.34
2018-02-07T07:03:34.835Z,60.31
2018-02-07T07:06:03.518Z,66.24
2018-02-07T07:08:31.902Z,64.53
2018-02-07T07:11:00.481Z,61.64
2018-02-07T07:13:29.062Z,58.53
2018-02-07T07:15:57.347Z,58.70
2018-02-07T07:18:25.722Z,59.90
2018-02-07T07:20:54.076Z,59.25
2018-02-07T07:23:22.577Z,58.53
2018-02-07T07:25:51.571Z,57.41
2018-02-07T07:28:19.993Z,55.53
2018-02-07T07:30:48.326Z,56.37
2018-02-07T07:33:16.298Z,57.51
2018-02-07T07:35:44.274Z,56.70
2018-02-07T07:38:12.327Z,54.83
2018-02-07T07:40:40.304Z,53.90
2018-02-07T07:43:08.320Z,53.42
2018-02-07T07:45:36.302Z,56.11
2018-02-07T07:48:04.249Z,56.31
2018-02-07T07:50:32.259Z,57.99
2018-02-07T07:53:00.243Z,57.21
2018-02-07T07:55:28.246Z,58.82
2018-02-07T07:57:56.207Z,55.53
2018-02-07T08:00:24.567Z,54.06
2018-02-07T08:02:52.575Z,55.58
2018-02-07T08:05:20.482Z,56.19
2018-02-07T08:07:48.466Z,53.44
2018-02-07T08:10:16.468Z,52.87
2018-02-07T08:12:45.106Z,51.35
2018-02-07T08:15:13.093Z,49.77
2018-02-07T08:17:41.050Z,49.87
2018-02-07T08:20:09.053Z,49.45
2018-02-07T08:22:37.140Z,46.85
2018-02-07T08:25:05.218Z,48.06
2018-02-07T08:27:33.143Z,44.56
2018-02-07T08:30:01.231Z,44.54
2018-02-07T08:32:29.226Z,44.46
2018-02-07T08:34:57.238Z,44.58
2018-02-07T08:37:25.238Z,43.11
2018-02-07T08:39:53.242Z,42.97
2018-02-07T08:42:21.194Z,42.01
2018-02-07T08:44:49.202Z,40.04
2018-02-07T08:47:17.267Z,38.68
2018-02-07T08:49:45.253Z,37.69
2018-02-07T08:52:13.185Z,37.59
2018-02-07T08:54:41.050Z,37.05
2018-02-07T08:57:09.062Z,36.52
2018-02-07T08:59:37.027Z,35.01
2018-02-07T09:02:05.412Z,36.08
2018-02-07T09:04:33.431Z,36.90
2018-02-07T09:07:01.450Z,37.33
2018-02-07T09:09:29.519Z,39.94
2018-02-07T09:11:57.533Z,40.93
2018-02-07T09:14:25.493Z,38.42
2018-02-07T09:16:53.494Z,40.33
2018-02-07T09:19:21.493Z,41.89
2018-02-07T09:21:49.771Z,43.80
2018-02-07T09:24:18.156Z,46.42
2018-02-07T09:26:47.156Z,47.52
2018-02-07T09:29:15.731Z,46.61
2018-02-07T09:31:44.305Z,48.73
2018-02-07T09:34:12.871Z,47.56
2018-02-07T09:36:41.473Z,48.25
2018-02-07T09:39:10.053Z,50.74
2018-02-07T09:41:38.722Z,49.58
2018-02-07T09:44:06.918Z,49.60
2018-02-07T09:46:35.398Z,46.29
2018-02-07T09:49:03.778Z,42.31
2018-02-07T09:51:32.254Z,40.63
2018-02-07T09:54:01.045Z,40.64
2018-02-07T09:56:29.502Z,38.08
2018-02-07T09:58:57.906Z,38.67
2018-02-07T10:01:26.488Z,39.55
2018-02-07T10:03:55.242Z,38.87
2018-02-07T10:06:24.038Z,40.71
2018-02-07T10:08:52.642Z,43.46
2018-02-07T10:11:21.018Z,44.76
2018-02-07T10:13:49.606Z,44.36
2018-02-07T10:16:18.190Z,41.82
2018-02-07T10:18:46.562Z,39.68
2018-02-07T10:21:14.838Z,40.67
2018-02-07T10:23:43.425Z,39.42
2018-02-07T10:26:11.595Z,39.75
2018-02-07T10:28:39.974Z,39.65
2018-02-07T10:31:08.454Z,39.58
2018-02-07T10:33:37.267Z,38.70
2018-02-07T10:36:05.619Z,36.57
2018-02-07T10:38:34.002Z,38.32
2018-02-07T10:41:02.582Z,40.08
2018-02-07T10:43:31.290Z,38.89
2018-02-07T10:46:00.155Z,38.35
2018-02-07T10:48:28.733Z,39.11
2018-02-07T10:50:57.197Z,40.17
2018-02-07T10:53:25.496Z,39.53
2018-02-07T10:55:53.770Z,38.36
2018-02-07T10:58:22.741Z,38.49
2018-02-07T11:00:51.331Z,37.86
2018-02-07T11:03:19.717Z,37.99
2018-02-07T11:05:48.713Z,38.30
2018-02-07T11:08:17.127Z,37.85
2018-02-07T11:10:45.476Z,34.17
2018-02-07T11:13:13.487Z,32.23
2018-02-07T11:15:41.440Z,30.71
2018-02-07T11:18:09.458Z,29.96
2018-02-07T11:20:37.508Z,29.20
2018-02-07T11:23:05.545Z,30.35
2018-02-07T11:25:33.535Z,29.58
2018-02-07T11:28:01.564Z,27.99
2018-02-07T11:30:29.499Z,28.99
2018-02-07T11:32:57.475Z,26.90
2018-02-07T11:35:25.478Z,26.17
2018-02-07T11:37:53.473Z,27.78
2018-02-07T11:40:21.441Z,25.82
2018-02-07T11:42:49.398Z,28.74
2018-02-07T11:45:17.355Z,26.80
2018-02-07T11:47:45.818Z,26.42
2018-02-07T11:50:14.197Z,24.37
2018-02-07T11:52:42.473Z,25.75
2018-02-07T11:55:10.855Z,24.74
2018-02-07T11:57:38.800Z,23.35
2018-02-07T12:00:06.771Z,24.23
2018-02-07T12:02:34.730Z,25.15
2018-02-07T12:05:02.689Z,26.87
2018-02-07T12:07:30.998Z,26.10
2018-02-07T12:09:58.961Z,27.04
2018-02-07T12:12:27.018Z,26.42
2018-02-07T12:14:55.073Z,27.03
2018-02-07T12:17:23.134Z,27.33
2018-02-07T12:19:51.632Z,28.41
2018-02-07T12:22:20.514Z,28.37
2018-02-07T12:24:48.538Z,28.74
2018-02-07T12:27:16.486Z,28.19
2018-02-07T12:29:44.513Z,28.34
2018-02-07T12:32:12.473Z,29.68
2018-02-07T12:34:41.530Z,29.54
2018-02-07T12:37:09.550Z,28.88
2018-02-07T12:39:37.559Z,29.16
2018-02-07T12:42:05.555Z,27.68
2018-02-07T12:44:33.596Z,26.41
2018-02-07T12:47:01.575Z,27.49
2018-02-07T12:49:29.575Z,26.28
2018-02-07T12:51:58.678Z,27.24
2018-02-07T12:54:27.681Z,28.02
2018-02-07T12:56:55.651Z,27.27
2018-02-07T12:59:23.618Z,28.93
2018-02-07T13:01:51.643Z,28.44
2018-02-07T13:04:19.756Z,28.97
2018-02-07T13:06:48.945Z,30.05
2018-02-07T13:09:17.378Z,30.50
2018-02-07T13:11:45.291Z,29.55
2018-02-07T13:14:13.251Z,31.58
2018-02-07T13:16:41.191Z,33.44
2018-02-07T13:19:09.163Z,34.22
2018-02-07T13:21:37.117Z,35.21
2018-02-07T13:24:05.127Z,35.08
2018-02-07T13:26:33.571Z,34.87
2018-02-07T13:29:02.191Z,35.49
2018-02-07T13:31:30.175Z,38.53
2018-02-07T13:33:58.705Z,40.13
2018-02-07T13:36:26.974Z,40.21
2018-02-07T13:38:55.455Z,40.09
2018-02-07T13:41:23.830Z,41.37
2018-02-07T13:43:52.427Z,42.03
2018-02-07T13:46:20.963Z,41.33
2018-02-07T13:48:49.296Z,42.08
2018-02-07T13:51:17.835Z,41.87
2018-02-07T13:53:46.338Z,42.07
2018-02-07T13:56:18.380Z,41.90
2018-02-07T13:58:48.159Z,42.50
2018-02-07T14:01:16.137Z,42.64
2018-02-07T14:03:44.128Z,41.93
2018-02-07T14:06:12.057Z,40.84
2018-02-07T14:08:40.042Z,41.56
2018-02-07T14:11:08.351Z,41.14
2018-02-07T14:13:36.350Z,40.57
2018-02-07T14:16:04.361Z,40.10
2018-02-07T14:18:32.344Z,40.25
2018-02-07T14:21:00.439Z,41.17
2018-02-07T14:23:28.410Z,41.37
2018-02-07T14:25:56.363Z,41.30
2018-02-07T14:28:24.298Z,41.40
2018-02-07T14:30:52.254Z,40.88
2018-02-07T14:33:20.205Z,40.53
2018-02-07T14:35:48.171Z,40.67
2018-02-07T14:38:16.131Z,40.22
2018-02-07T14:40:44.134Z,40.32
2018-02-07T14:43:12.109Z,40.48
2018-02-07T14:45:40.101Z,40.57
2018-02-07T14:48:08.066Z,40.43
2018-02-07T14:50:36.030Z,40.57
2018-02-07T14:53:04.082Z,40.41
2018-02-07T14:55:32.059Z,40.28
2018-02-07T14:58:00.054Z,40.56
2018-02-07T15:00:27.963Z,40.48
2018-02-07T15:02:55.931Z,40.96
2018-02-07T15:05:23.917Z,40.83
2018-02-07T15:07:51.859Z,41.12
2018-02-07T15:10:19.865Z,40.83
2018-02-07T15:12:48.074Z,41.22
2018-02-07T15:15:16.048Z,40.90
2018-02-07T15:17:44.010Z,41.09
2018-02-07T15:20:12.047Z,41.83
2018-02-07T15:22:40.066Z,41.77
2018-02-07T15:25:08.073Z,42.04
2018-02-07T15:27:36.118Z,42.73
2018-02-07T15:30:04.159Z,42.76
2018-02-07T15:32:32.187Z,42.11
2018-02-07T15:35:00.164Z,42.28
2018-02-07T15:37:28.102Z,42.82
2018-02-07T15:39:56.666Z,42.25
2018-02-07T15:42:24.631Z,42.89
2018-02-07T15:44:52.556Z,43.09
2018-02-07T15:47:20.574Z,42.88
2018-02-07T15:49:48.490Z,42.06
2018-02-07T15:52:16.478Z,42.82
2018-02-07T15:54:44.446Z,42.67
2018-02-07T15:57:12.392Z,42.85
2018-02-07T15:59:40.918Z,43.29
2018-02-07T16:02:08.967Z,43.66
2018-02-07T16:04:37.007Z,44.32
2018-02-07T16:07:05.027Z,43.96
2018-02-07T16:09:33.033Z,42.90
2018-02-07T16:12:01.106Z,42.29
2018-02-07T16:14:29.551Z,44.04
2018-02-07T16:16:57.499Z,45.28
2018-02-07T16:19:25.568Z,45.62
2018-02-07T16:21:53.490Z,46.70
2018-02-07T16:24:21.557Z,45.42
2018-02-07T16:26:49.509Z,45.14
2018-02-07T16:29:17.529Z,45.26
2018-02-07T16:31:45.490Z,44.58
2018-02-07T16:34:13.449Z,45.14
2018-02-07T16:36:41.473Z,44.46
2018-02-07T16:39:09.425Z,44.47
2018-02-07T16:41:37.913Z,44.17
2018-02-07T16:44:06.813Z,44.11
2018-02-07T16:46:35.183Z,44.55
2018-02-07T16:49:03.870Z,44.55
2018-02-07T16:51:32.250Z,45.12
2018-02-07T16:54:00.730Z,44.38
2018-02-07T16:56:29.210Z,44.41
2018-02-07T16:58:57.524Z,44.03
2018-02-07T17:01:25.570Z,43.26
2018-02-07T17:03:53.527Z,42.63
2018-02-07T17:06:21.511Z,42.05
2018-02-07T17:08:49.459Z,42.02
2018-02-07T17:11:17.451Z,41.91
2018-02-07T17:13:45.475Z,41.78
2018-02-07T17:16:13.826Z,42.06
2018-02-07T17:18:41.777Z,41.50
2018-02-07T17:21:09.896Z,41.68
2018-02-07T17:23:38.498Z,41.68
2018-02-07T17:26:07.083Z,40.51
2018-02-07T17:28:35.571Z,40.55
2018-02-07T17:31:04.021Z,41.10
2018-02-07T17:33:32.027Z,42.27
2018-02-07T17:36:00.049Z,43.11
2018-02-07T17:38:28.131Z,43.68
2018-02-07T17:40:56.090Z,43.55
2018-02-07T17:43:24.090Z,43.10
2018-02-07T17:45:52.678Z,43.24
2018-02-07T17:48:20.646Z,44.81
2018-02-07T17:50:48.714Z,43.79
2018-02-07T17:53:16.667Z,44.30
2018-02-07T17:55:44.618Z,43.85
2018-02-07T17:58:12.598Z,45.54
2018-02-07T18:00:40.617Z,44.72
2018-02-07T18:03:08.614Z,45.87
2018-02-07T18:05:36.638Z,46.77
2018-02-07T18:08:04.681Z,44.97
2018-02-07T18:10:32.683Z,43.99
2018-02-07T18:13:00.683Z,44.20
2018-02-07T18:15:28.697Z,44.33
2018-02-07T18:17:56.839Z,46.09
2018-02-07T18:20:24.855Z,48.47
2018-02-07T18:22:52.822Z,49.80
2018-02-07T18:25:20.781Z,50.38
2018-02-07T18:27:48.807Z,49.46
2018-02-07T18:30:16.789Z,49.20
2018-02-07T18:32:44.774Z,49.02
2018-02-07T18:35:12.754Z,50.36
2018-02-07T18:37:40.760Z,51.15
2018-02-07T18:40:08.671Z,49.23
2018-02-07T18:42:36.673Z,49.54
2018-02-07T18:45:04.700Z,49.84
2018-02-07T18:47:32.767Z,49.03
2018-02-07T18:50:00.775Z,47.95
2018-02-07T18:52:28.774Z,48.62
2018-02-07T18:54:57.330Z,47.33
2018-02-07T18:57:25.988Z,48.14
2018-02-07T18:59:54.390Z,47.92
2018-02-07T19:02:22.871Z,46.61
2018-02-07T19:04:51.259Z,46.76
2018-02-07T19:07:19.830Z,48.58
2018-02-07T19:09:48.310Z,49.75
2018-02-07T19:12:16.890Z,50.16
2018-02-07T19:14:45.492Z,49.71
2018-02-07T19:17:13.489Z,48.67
2018-02-07T19:19:41.824Z,47.44
2018-02-07T19:22:09.731Z,47.37
2018-02-07T19:24:37.689Z,47.67
2018-02-07T19:27:05.627Z,46.50
2018-02-07T19:29:33.596Z,45.50
2018-02-07T19:32:01.543Z,44.94
2018-02-07T19:34:29.611Z,45.64
2018-02-07T19:36:57.639Z,46.60
2018-02-07T19:39:25.617Z,46.15
2018-02-07T19:41:53.565Z,46.33
2018-02-07T19:44:21.618Z,45.32
2018-02-07T19:46:49.641Z,45.23
2018-02-07T19:49:17.598Z,45.71
2018-02-07T19:51:45.629Z,46.76
2018-02-07T19:54:13.624Z,46.68
2018-02-07T19:56:41.600Z,46.29
2018-02-07T19:59:09.618Z,46.27
2018-02-07T20:01:37.599Z,46.00
2018-02-07T20:04:05.517Z,45.42
2018-02-07T20:06:34.437Z,45.49
2018-02-07T20:09:02.427Z,45.56
2018-02-07T20:11:30.392Z,45.24
2018-02-07T20:13:58.454Z,45.31
2018-02-07T20:16:26.382Z,46.22
2018-02-07T20:18:54.342Z,46.51
2018-02-07T20:21:22.583Z,46.39
2018-02-07T20:23:50.528Z,45.73
2018-02-07T20:26:18.570Z,46.09
2018-02-07T20:28:46.578Z,46.00
2018-02-07T20:31:14.523Z,46.47
2018-02-07T20:33:42.517Z,47.06
2018-02-07T20:36:10.459Z,48.67
2018-02-07T20:38:38.443Z,50.91
2018-02-07T20:41:06.505Z,50.18
2018-02-07T20:43:34.495Z,49.56
2018-02-07T20:46:02.460Z,49.20
2018-02-07T20:48:30.474Z,51.80
2018-02-07T20:50:58.467Z,52.28
2018-02-07T20:53:26.466Z,52.09
2018-02-07T20:55:54.474Z,52.07
2018-02-07T20:58:22.405Z,52.63
2018-02-07T21:00:50.389Z,53.51
2018-02-07T21:03:18.337Z,51.65
2018-02-07T21:05:46.542Z,52.35
2018-02-07T21:08:14.543Z,51.55
2018-02-07T21:10:42.476Z,51.67
2018-02-07T21:13:10.411Z,52.00
2018-02-07T21:15:38.375Z,52.06
2018-02-07T21:18:06.353Z,53.30
2018-02-07T21:20:34.405Z,54.49
2018-02-07T21:23:02.819Z,55.68
2018-02-07T21:25:30.783Z,58.05
2018-02-07T21:27:58.762Z,57.14
2018-02-07T21:30:26.711Z,55.10
2018-02-07T21:32:54.810Z,54.37
2018-02-07T21:35:22.766Z,52.78
2018-02-07T21:37:50.746Z,52.04
2018-02-07T21:40:18.713Z,51.61
2018-02-07T21:42:46.708Z,51.66
2018-02-07T21:45:14.628Z,51.02
2018-02-07T21:47:42.621Z,51.62
2018-02-07T21:50:10.693Z,51.29
2018-02-07T21:52:38.662Z,51.94
2018-02-07T21:55:06.668Z,51.89
2018-02-07T21:57:34.616Z,52.17
2018-02-07T22:00:02.719Z,51.46
2018-02-07T22:02:31.019Z,51.17
2018-02-07T22:04:59.494Z,50.73
2018-02-07T22:07:27.698Z,54.25
2018-02-07T22:09:56.251Z,55.27
2018-02-07T22:12:24.629Z,56.20
2018-02-07T22:14:52.855Z,54.70
2018-02-07T22:17:21.697Z,53.26
2018-02-07T22:19:50.583Z,53.60
2018-02-07T22:22:18.898Z,54.50
2018-02-07T22:24:47.645Z,53.91
2018-02-07T22:27:16.004Z,52.83
2018-02-07T22:29:44.653Z,52.95
2018-02-07T22:32:13.086Z,52.73
2018-02-07T22:34:41.774Z,51.63
2018-02-07T22:37:10.046Z,53.83
2018-02-07T22:39:38.535Z,53.67
2018-02-07T22:42:07.010Z,54.74
2018-02-07T22:44:35.494Z,56.79
2018-02-07T22:47:03.865Z,55.05
2018-02-07T22:49:32.250Z,54.74
2018-02-07T22:52:00.829Z,54.31
2018-02-07T22:54:29.191Z,54.51
2018-02-07T22:56:57.587Z,54.76
2018-02-07T22:59:26.066Z,55.79
2018-02-07T23:01:54.532Z,55.78
2018-02-07T23:04:23.130Z,58.52
2018-02-07T23:06:51.709Z,58.14
2018-02-07T23:09:19.985Z,57.98
2018-02-07T23:11:48.674Z,57.48
2018-02-07T23:14:17.046Z,58.09
2018-02-07T23:16:45.640Z,57.15
2018-02-07T23:19:14.319Z,57.27
2018-02-07T23:21:42.799Z,56.57
2018-02-07T23:24:11.497Z,56.16
2018-02-07T23:26:39.961Z,58.16
2018-02-07T23:29:08.662Z,58.42
2018-02-07T23:31:37.438Z,58.10
2018-02-07T23:34:05.794Z,57.92
2018-02-07T23:36:34.294Z,58.86
2018-02-07T23:39:02.878Z,58.36
2018-02-07T23:41:31.161Z,58.27
2018-02-07T23:43:59.425Z,58.28
2018-02-07T23:46:27.705Z,59.70
2018-02-07T23:48:56.086Z,60.11
2018-02-07T23:51:24.574Z,61.23
2018-02-07T23:53:53.152Z,62.11
2018-02-07T23:56:21.530Z,59.31
2018-02-07T23:58:50.087Z,59.01
